sensor_id;sensor_type;location;lat;lon;timestamp;pressure;altitude;pressure_sealevel;temperature;humidity
52032;BME280;38044;45.148;39.604;2024-03-07T00:02:19;100790.16;;;4.44;91.71
52032;BME280;38044;45.148;39.604;2024-03-07T00:04:45;100782.66;;;4.41;91.82
52032;BME280;38044;45.148;39.604;2024-03-07T00:07:11;100781.59;;;4.42;91.72
52032;BME280;38044;45.148;39.604;2024-03-07T00:09:37;100784.19;;;4.37;92.16
52032;BME280;38044;45.148;39.604;2024-03-07T00:12:04;100762.50;;;4.28;91.65
52032;BME280;38044;45.148;39.604;2024-03-07T00:14:34;100774.84;;;4.17;91.32
52032;BME280;38044;45.148;39.604;2024-03-07T00:17:01;100769.88;;;4.04;90.63
52032;BME280;38044;45.148;39.604;2024-03-07T00:19:28;100778.88;;;4.03;90.95
52032;BME280;38044;45.148;39.604;2024-03-07T00:21:56;100784.69;;;4.00;90.66
52032;BME280;38044;45.148;39.604;2024-03-07T00:24:22;100785.91;;;3.92;90.45
52032;BME280;38044;45.148;39.604;2024-03-07T00:26:53;100776.38;;;3.79;90.46
52032;BME280;38044;45.148;39.604;2024-03-07T00:29:19;100776.22;;;3.69;90.27
52032;BME280;38044;45.148;39.604;2024-03-07T00:31:48;100786.44;;;3.77;90.05
52032;BME280;38044;45.148;39.604;2024-03-07T00:34:14;100788.13;;;3.67;89.68
52032;BME280;38044;45.148;39.604;2024-03-07T00:36:43;100784.19;;;3.69;89.94
52032;BME280;38044;45.148;39.604;2024-03-07T00:39:08;100785.06;;;3.58;89.45
52032;BME280;38044;45.148;39.604;2024-03-07T00:41:38;100782.41;;;3.58;89.22
52032;BME280;38044;45.148;39.604;2024-03-07T00:44:05;100784.00;;;3.59;88.88
52032;BME280;38044;45.148;39.604;2024-03-07T00:46:32;100795.75;;;3.63;88.71
52032;BME280;38044;45.148;39.604;2024-03-07T00:48:57;100794.16;;;3.62;88.09
52032;BME280;38044;45.148;39.604;2024-03-07T00:51:23;100785.13;;;3.63;87.80
52032;BME280;38044;45.148;39.604;2024-03-07T00:53:49;100802.44;;;3.66;87.89
52032;BME280;38044;45.148;39.604;2024-03-07T00:56:15;100787.28;;;3.49;87.49
52032;BME280;38044;45.148;39.604;2024-03-07T00:58:41;100790.06;;;3.43;87.09
52032;BME280;38044;45.148;39.604;2024-03-07T01:01:07;100795.97;;;3.45;86.37
52032;BME280;38044;45.148;39.604;2024-03-07T01:03:33;100793.47;;;3.38;86.06
52032;BME280;38044;45.148;39.604;2024-03-07T01:05:58;100789.41;;;3.35;86.01
52032;BME280;38044;45.148;39.604;2024-03-07T01:08:24;100783.56;;;3.22;85.77
52032;BME280;38044;45.148;39.604;2024-03-07T01:10:50;100799.84;;;3.25;85.71
52032;BME280;38044;45.148;39.604;2024-03-07T01:13:16;100802.41;;;3.20;85.74
52032;BME280;38044;45.148;39.604;2024-03-07T01:15:45;100806.69;;;3.21;86.00
52032;BME280;38044;45.148;39.604;2024-03-07T01:18:11;100810.63;;;3.19;85.64
52032;BME280;38044;45.148;39.604;2024-03-07T01:20:38;100814.66;;;3.21;85.69
52032;BME280;38044;45.148;39.604;2024-03-07T01:23:04;100806.91;;;3.20;85.49
52032;BME280;38044;45.148;39.604;2024-03-07T01:25:30;100816.72;;;3.19;85.41
52032;BME280;38044;45.148;39.604;2024-03-07T01:28:02;100819.50;;;3.24;85.11
52032;BME280;38044;45.148;39.604;2024-03-07T01:30:29;100814.28;;;3.17;85.15
52032;BME280;38044;45.148;39.604;2024-03-07T01:32:55;100823.16;;;3.23;84.95
52032;BME280;38044;45.148;39.604;2024-03-07T01:35:21;100829.44;;;3.17;84.46
52032;BME280;38044;45.148;39.604;2024-03-07T01:37:47;100831.53;;;3.15;84.38
52032;BME280;38044;45.148;39.604;2024-03-07T01:40:13;100837.66;;;3.15;84.62
52032;BME280;38044;45.148;39.604;2024-03-07T01:42:40;100836.50;;;3.11;83.75
52032;BME280;38044;45.148;39.604;2024-03-07T01:45:06;100831.66;;;3.08;82.37
52032;BME280;38044;45.148;39.604;2024-03-07T01:47:35;100826.00;;;3.05;82.47
52032;BME280;38044;45.148;39.604;2024-03-07T01:50:04;100831.09;;;3.06;82.16
52032;BME280;38044;45.148;39.604;2024-03-07T01:52:31;100838.16;;;3.01;81.13
52032;BME280;38044;45.148;39.604;2024-03-07T01:54:57;100840.81;;;3.01;81.45
52032;BME280;38044;45.148;39.604;2024-03-07T01:57:23;100836.50;;;3.00;81.00
52032;BME280;38044;45.148;39.604;2024-03-07T01:59:49;100835.59;;;2.94;80.30
52032;BME280;38044;45.148;39.604;2024-03-07T02:02:16;100850.72;;;2.93;80.69
52032;BME280;38044;45.148;39.604;2024-03-07T02:04:43;100854.19;;;2.94;80.57
52032;BME280;38044;45.148;39.604;2024-03-07T02:07:09;100855.56;;;2.97;79.93
52032;BME280;38044;45.148;39.604;2024-03-07T02:09:38;100860.31;;;2.94;80.41
52032;BME280;38044;45.148;39.604;2024-03-07T02:12:04;100851.88;;;2.86;80.05
52032;BME280;38044;45.148;39.604;2024-03-07T02:14:31;100876.22;;;2.94;79.44
52032;BME280;38044;45.148;39.604;2024-03-07T02:16:56;100875.69;;;2.92;79.28
52032;BME280;38044;45.148;39.604;2024-03-07T02:19:23;100870.94;;;2.83;79.46
52032;BME280;38044;45.148;39.604;2024-03-07T02:21:49;100885.59;;;2.85;79.57
52032;BME280;38044;45.148;39.604;2024-03-07T02:24:14;100891.72;;;2.86;79.70
52032;BME280;38044;45.148;39.604;2024-03-07T02:26:41;100900.25;;;2.88;79.35
52032;BME280;38044;45.148;39.604;2024-03-07T02:29:07;100891.25;;;2.77;79.06
52032;BME280;38044;45.148;39.604;2024-03-07T02:31:33;100893.34;;;2.75;79.05
52032;BME280;38044;45.148;39.604;2024-03-07T02:34:05;100909.75;;;2.84;79.55
52032;BME280;38044;45.148;39.604;2024-03-07T02:36:33;100908.56;;;2.80;79.43
52032;BME280;38044;45.148;39.604;2024-03-07T02:38:59;100912.28;;;2.79;79.65
52032;BME280;38044;45.148;39.604;2024-03-07T02:41:26;100897.47;;;2.71;79.92
52032;BME280;38044;45.148;39.604;2024-03-07T02:43:52;100896.34;;;2.67;79.35
52032;BME280;38044;45.148;39.604;2024-03-07T02:46:18;100902.13;;;2.76;79.92
52032;BME280;38044;45.148;39.604;2024-03-07T02:48:45;100905.69;;;2.69;79.39
52032;BME280;38044;45.148;39.604;2024-03-07T02:51:11;100901.06;;;2.65;79.84
52032;BME280;38044;45.148;39.604;2024-03-07T02:53:37;100893.78;;;2.60;80.06
52032;BME280;38044;45.148;39.604;2024-03-07T02:56:06;100911.22;;;2.68;79.79
52032;BME280;38044;45.148;39.604;2024-03-07T02:58:34;100911.22;;;2.68;79.87
52032;BME280;38044;45.148;39.604;2024-03-07T03:01:00;100913.06;;;2.67;80.01
52032;BME280;38044;45.148;39.604;2024-03-07T03:03:27;100921.84;;;2.68;80.05
52032;BME280;38044;45.148;39.604;2024-03-07T03:05:52;100912.59;;;2.59;80.04
52032;BME280;38044;45.148;39.604;2024-03-07T03:08:18;100919.78;;;2.70;80.21
52032;BME280;38044;45.148;39.604;2024-03-07T03:10:44;100924.03;;;2.71;80.20
52032;BME280;38044;45.148;39.604;2024-03-07T03:13:10;100925.09;;;2.70;80.41
52032;BME280;38044;45.148;39.604;2024-03-07T03:15:36;100933.97;;;2.76;80.24
52032;BME280;38044;45.148;39.604;2024-03-07T03:18:04;100923.00;;;2.72;80.10
52032;BME280;38044;45.148;39.604;2024-03-07T03:20:31;100929.34;;;2.71;80.39
52032;BME280;38044;45.148;39.604;2024-03-07T03:23:00;100932.00;;;2.71;79.85
52032;BME280;38044;45.148;39.604;2024-03-07T03:25:28;100938.03;;;2.78;80.11
52032;BME280;38044;45.148;39.604;2024-03-07T03:27:55;100931.53;;;2.74;80.07
52032;BME280;38044;45.148;39.604;2024-03-07T03:30:21;100948.19;;;2.81;80.02
52032;BME280;38044;45.148;39.604;2024-03-07T03:32:49;100937.88;;;2.73;80.06
52032;BME280;38044;45.148;39.604;2024-03-07T03:35:18;100960.88;;;2.79;79.70
52032;BME280;38044;45.148;39.604;2024-03-07T03:37:45;100958.66;;;2.76;80.09
52032;BME280;38044;45.148;39.604;2024-03-07T03:40:17;100963.97;;;2.76;80.00
52032;BME280;38044;45.148;39.604;2024-03-07T03:42:49;100957.53;;;2.72;79.71
52032;BME280;38044;45.148;39.604;2024-03-07T03:45:15;100960.19;;;2.72;79.58
52032;BME280;38044;45.148;39.604;2024-03-07T03:47:48;100969.50;;;2.75;80.16
52032;BME280;38044;45.148;39.604;2024-03-07T03:50:17;100969.16;;;2.71;80.04
52032;BME280;38044;45.148;39.604;2024-03-07T03:52:48;100950.91;;;2.63;80.20
52032;BME280;38044;45.148;39.604;2024-03-07T03:55:15;100970.06;;;2.65;80.32
52032;BME280;38044;45.148;39.604;2024-03-07T03:57:42;100958.31;;;2.61;80.42
52032;BME280;38044;45.148;39.604;2024-03-07T04:00:10;100974.94;;;2.68;80.46
52032;BME280;38044;45.148;39.604;2024-03-07T04:02:43;100974.47;;;2.71;80.52
52032;BME280;38044;45.148;39.604;2024-03-07T04:05:11;100974.94;;;2.68;80.43
52032;BME280;38044;45.148;39.604;2024-03-07T04:07:39;100976.19;;;2.65;80.63
52032;BME280;38044;45.148;39.604;2024-03-07T04:10:05;100968.47;;;2.64;80.00
52032;BME280;38044;45.148;39.604;2024-03-07T04:12:38;100985.78;;;2.66;80.69
52032;BME280;38044;45.148;39.604;2024-03-07T04:17:36;100982.88;;;2.68;79.95
52032;BME280;38044;45.148;39.604;2024-03-07T04:20:03;100990.50;;;2.64;80.66
52032;BME280;38044;45.148;39.604;2024-03-07T04:22:33;100979.41;;;2.56;80.52
52032;BME280;38044;45.148;39.604;2024-03-07T04:25:00;100983.09;;;2.55;80.45
52032;BME280;38044;45.148;39.604;2024-03-07T04:27:27;101000.78;;;2.61;80.38
52032;BME280;38044;45.148;39.604;2024-03-07T04:29:53;100999.59;;;2.57;80.47
52032;BME280;38044;45.148;39.604;2024-03-07T04:32:19;100995.78;;;2.53;80.42
52032;BME280;38044;45.148;39.604;2024-03-07T04:34:44;100994.41;;;2.50;80.99
52032;BME280;38044;45.148;39.604;2024-03-07T04:37:11;101013.00;;;2.62;80.90
52032;BME280;38044;45.148;39.604;2024-03-07T04:39:38;101004.44;;;2.60;81.14
52032;BME280;38044;45.148;39.604;2024-03-07T04:42:05;101014.16;;;2.66;80.51
52032;BME280;38044;45.148;39.604;2024-03-07T04:44:32;101009.53;;;2.61;81.01
52032;BME280;38044;45.148;39.604;2024-03-07T04:47:01;101016.69;;;2.61;81.02
52032;BME280;38044;45.148;39.604;2024-03-07T04:49:28;101009.75;;;2.60;81.13
52032;BME280;38044;45.148;39.604;2024-03-07T04:51:56;101004.00;;;2.63;81.57
52032;BME280;38044;45.148;39.604;2024-03-07T04:54:23;100992.69;;;2.56;81.33
52032;BME280;38044;45.148;39.604;2024-03-07T04:56:50;101003.44;;;2.61;81.74
52032;BME280;38044;45.148;39.604;2024-03-07T04:59:17;101004.44;;;2.60;81.90
52032;BME280;38044;45.148;39.604;2024-03-07T05:01:44;101009.63;;;2.55;82.56
52032;BME280;38044;45.148;39.604;2024-03-07T05:04:12;101013.81;;;2.62;82.65
52032;BME280;38044;45.148;39.604;2024-03-07T05:06:39;101018.31;;;2.62;82.51
52032;BME280;38044;45.148;39.604;2024-03-07T05:09:09;101004.22;;;2.50;82.75
52032;BME280;38044;45.148;39.604;2024-03-07T05:11:36;101018.41;;;2.55;83.25
52032;BME280;38044;45.148;39.604;2024-03-07T05:14:03;101016.53;;;2.44;83.50
52032;BME280;38044;45.148;39.604;2024-03-07T05:16:30;101004.72;;;2.40;84.23
52032;BME280;38044;45.148;39.604;2024-03-07T05:18:57;101030.75;;;2.50;84.33
52032;BME280;38044;45.148;39.604;2024-03-07T05:21:26;101033.41;;;2.50;84.24
52032;BME280;38044;45.148;39.604;2024-03-07T05:23:59;101025.59;;;2.36;84.13
52032;BME280;38044;45.148;39.604;2024-03-07T05:26:25;101045.41;;;2.52;84.48
52032;BME280;38044;45.148;39.604;2024-03-07T05:28:55;101023.34;;;2.52;84.85
52032;BME280;38044;45.148;39.604;2024-03-07T05:31:21;101031.22;;;2.58;84.76
52032;BME280;38044;45.148;39.604;2024-03-07T05:33:47;101026.38;;;2.55;84.79
52032;BME280;38044;45.148;39.604;2024-03-07T05:36:13;101014.72;;;2.56;85.33
52032;BME280;38044;45.148;39.604;2024-03-07T05:38:43;101027.50;;;2.78;85.10
52032;BME280;38044;45.148;39.604;2024-03-07T05:41:13;101030.34;;;2.76;85.25
52032;BME280;38044;45.148;39.604;2024-03-07T05:43:39;101037.41;;;2.82;85.23
52032;BME280;38044;45.148;39.604;2024-03-07T05:46:05;101023.13;;;2.83;85.15
52032;BME280;38044;45.148;39.604;2024-03-07T05:48:35;101025.66;;;2.90;85.03
52032;BME280;38044;45.148;39.604;2024-03-07T05:51:02;101034.78;;;3.06;84.79
52032;BME280;38044;45.148;39.604;2024-03-07T05:53:28;101020.50;;;3.07;84.81
52032;BME280;38044;45.148;39.604;2024-03-07T05:55:54;101043.94;;;3.22;84.54
52032;BME280;38044;45.148;39.604;2024-03-07T05:58:20;101043.13;;;3.21;84.10
52032;BME280;38044;45.148;39.604;2024-03-07T06:00:47;101046.13;;;3.13;83.77
52032;BME280;38044;45.148;39.604;2024-03-07T06:03:18;101039.56;;;3.15;84.45
52032;BME280;38044;45.148;39.604;2024-03-07T06:05:47;101045.66;;;3.16;84.17
52032;BME280;38044;45.148;39.604;2024-03-07T06:08:18;101026.94;;;3.11;84.21
52032;BME280;38044;45.148;39.604;2024-03-07T06:10:44;101044.88;;;3.27;84.16
52032;BME280;38044;45.148;39.604;2024-03-07T06:13:14;101030.53;;;3.28;83.85
52032;BME280;38044;45.148;39.604;2024-03-07T06:15:44;101042.22;;;3.27;83.62
52032;BME280;38044;45.148;39.604;2024-03-07T06:18:10;101046.38;;;3.47;83.92
52032;BME280;38044;45.148;39.604;2024-03-07T06:20:36;101049.97;;;3.64;83.66
52032;BME280;38044;45.148;39.604;2024-03-07T06:23:03;101047.88;;;3.78;82.73
52032;BME280;38044;45.148;39.604;2024-03-07T06:25:32;101050.50;;;3.90;82.79
52032;BME280;38044;45.148;39.604;2024-03-07T06:28:17;101047.31;;;4.16;82.62
52032;BME280;38044;45.148;39.604;2024-03-07T06:30:46;101042.75;;;4.28;81.08
52032;BME280;38044;45.148;39.604;2024-03-07T06:33:13;101045.84;;;4.37;80.14
52032;BME280;38044;45.148;39.604;2024-03-07T06:35:40;101049.50;;;4.48;78.91
52032;BME280;38044;45.148;39.604;2024-03-07T06:38:07;101047.84;;;4.59;78.01
52032;BME280;38044;45.148;39.604;2024-03-07T06:40:34;101044.94;;;4.60;77.24
52032;BME280;38044;45.148;39.604;2024-03-07T06:43:00;101046.09;;;4.64;76.28
52032;BME280;38044;45.148;39.604;2024-03-07T06:45:29;101050.75;;;4.57;75.17
52032;BME280;38044;45.148;39.604;2024-03-07T06:47:55;101048.56;;;4.54;75.59
52032;BME280;38044;45.148;39.604;2024-03-07T06:50:22;101042.66;;;4.52;76.72
52032;BME280;38044;45.148;39.604;2024-03-07T06:52:49;101056.97;;;4.63;76.06
52032;BME280;38044;45.148;39.604;2024-03-07T06:55:15;101062.19;;;4.58;76.04
52032;BME280;38044;45.148;39.604;2024-03-07T06:57:43;101062.66;;;4.55;75.96
52032;BME280;38044;45.148;39.604;2024-03-07T07:00:13;101064.09;;;4.45;75.58
52032;BME280;38044;45.148;39.604;2024-03-07T07:02:42;101070.22;;;4.46;76.77
52032;BME280;38044;45.148;39.604;2024-03-07T07:05:08;101075.56;;;4.46;76.13
52032;BME280;38044;45.148;39.604;2024-03-07T07:07:44;101080.97;;;4.51;76.12
52032;BME280;38044;45.148;39.604;2024-03-07T07:10:11;101080.69;;;4.36;75.87
52032;BME280;38044;45.148;39.604;2024-03-07T07:12:48;101064.72;;;4.36;76.23
52032;BME280;38044;45.148;39.604;2024-03-07T07:15:15;101080.50;;;4.25;76.04
52032;BME280;38044;45.148;39.604;2024-03-07T07:17:43;101085.00;;;4.25;77.23
52032;BME280;38044;45.148;39.604;2024-03-07T07:20:12;101093.56;;;4.27;76.75
52032;BME280;38044;45.148;39.604;2024-03-07T07:22:41;101083.25;;;4.31;76.78
52032;BME280;38044;45.148;39.604;2024-03-07T07:25:07;101097.94;;;4.33;76.43
52032;BME280;38044;45.148;39.604;2024-03-07T07:27:46;101089.72;;;4.35;75.69
52032;BME280;38044;45.148;39.604;2024-03-07T07:30:14;101069.84;;;4.25;76.25
52032;BME280;38044;45.148;39.604;2024-03-07T07:32:41;101095.50;;;4.32;75.26
52032;BME280;38044;45.148;39.604;2024-03-07T07:35:09;101095.97;;;4.28;74.98
52032;BME280;38044;45.148;39.604;2024-03-07T07:37:44;101103.22;;;4.45;75.32
52032;BME280;38044;45.148;39.604;2024-03-07T07:40:16;101103.34;;;4.50;74.87
52032;BME280;38044;45.148;39.604;2024-03-07T07:42:47;101106.00;;;4.50;74.68
52032;BME280;38044;45.148;39.604;2024-03-07T07:45:14;101100.56;;;4.45;75.17
52032;BME280;38044;45.148;39.604;2024-03-07T07:47:45;101098.00;;;4.50;74.02
52032;BME280;38044;45.148;39.604;2024-03-07T07:50:19;101101.59;;;4.56;75.13
52032;BME280;38044;45.148;39.604;2024-03-07T07:52:47;101102.28;;;4.51;74.15
52032;BME280;38044;45.148;39.604;2024-03-07T07:55:17;101091.53;;;4.46;73.91
52032;BME280;38044;45.148;39.604;2024-03-07T07:58:01;101104.19;;;4.67;74.32
52032;BME280;38044;45.148;39.604;2024-03-07T08:00:29;101093.50;;;4.50;74.64
52032;BME280;38044;45.148;39.604;2024-03-07T08:03:04;101109.03;;;4.70;73.84
52032;BME280;38044;45.148;39.604;2024-03-07T08:05:33;101103.25;;;4.73;73.75
52032;BME280;38044;45.148;39.604;2024-03-07T08:08:01;101099.19;;;4.71;72.80
52032;BME280;38044;45.148;39.604;2024-03-07T08:10:32;101099.19;;;4.71;74.25
52032;BME280;38044;45.148;39.604;2024-03-07T08:13:00;101089.72;;;4.63;73.71
52032;BME280;38044;45.148;39.604;2024-03-07T08:15:27;101106.09;;;4.84;73.31
52032;BME280;38044;45.148;39.604;2024-03-07T08:17:54;101110.84;;;4.82;72.92
52032;BME280;38044;45.148;39.604;2024-03-07T08:20:24;101118.59;;;4.83;73.63
52032;BME280;38044;45.148;39.604;2024-03-07T08:22:52;101110.22;;;4.91;74.07
52032;BME280;38044;45.148;39.604;2024-03-07T08:25:23;101105.41;;;5.05;72.88
52032;BME280;38044;45.148;39.604;2024-03-07T08:27:51;101115.75;;;5.18;73.62
52032;BME280;38044;45.148;39.604;2024-03-07T08:30:18;101122.22;;;5.23;72.81
52032;BME280;38044;45.148;39.604;2024-03-07T08:32:45;101131.75;;;5.18;72.42
52032;BME280;38044;45.148;39.604;2024-03-07T08:35:12;101132.56;;;5.19;72.39
52032;BME280;38044;45.148;39.604;2024-03-07T08:37:43;101135.63;;;5.28;73.26
52032;BME280;38044;45.148;39.604;2024-03-07T08:40:10;101131.06;;;5.11;72.62
52032;BME280;38044;45.148;39.604;2024-03-07T08:42:37;101128.03;;;5.19;72.29
52032;BME280;38044;45.148;39.604;2024-03-07T08:45:04;101131.91;;;5.29;73.01
52032;BME280;38044;45.148;39.604;2024-03-07T08:47:34;101145.50;;;5.44;72.13
52032;BME280;38044;45.148;39.604;2024-03-07T08:50:04;101135.16;;;5.31;71.73
52032;BME280;38044;45.148;39.604;2024-03-07T08:52:38;101118.56;;;5.29;72.39
52032;BME280;38044;45.148;39.604;2024-03-07T08:55:12;101134.19;;;5.37;72.12
52032;BME280;38044;45.148;39.604;2024-03-07T08:57:40;101134.66;;;5.51;71.47
52032;BME280;38044;45.148;39.604;2024-03-07T09:00:07;101138.84;;;5.63;70.99
52032;BME280;38044;45.148;39.604;2024-03-07T09:02:38;101132.69;;;5.80;70.98
52032;BME280;38044;45.148;39.604;2024-03-07T09:05:05;101137.84;;;5.86;70.95
52032;BME280;38044;45.148;39.604;2024-03-07T09:07:32;101141.41;;;6.09;69.68
52032;BME280;38044;45.148;39.604;2024-03-07T09:09:58;101137.94;;;6.08;68.42
52032;BME280;38044;45.148;39.604;2024-03-07T09:12:24;101127.19;;;6.03;70.30
52032;BME280;38044;45.148;39.604;2024-03-07T09:14:53;101143.50;;;6.24;68.49
52032;BME280;38044;45.148;39.604;2024-03-07T09:17:20;101130.69;;;6.04;68.76
52032;BME280;38044;45.148;39.604;2024-03-07T09:19:46;101149.78;;;6.18;70.32
52032;BME280;38044;45.148;39.604;2024-03-07T09:22:12;101149.94;;;6.28;70.69
52032;BME280;38044;45.148;39.604;2024-03-07T09:24:37;101148.75;;;6.41;69.13
52032;BME280;38044;45.148;39.604;2024-03-07T09:27:03;101135.47;;;6.24;69.88
52032;BME280;38044;45.148;39.604;2024-03-07T09:29:30;101149.13;;;6.27;69.23
52032;BME280;38044;45.148;39.604;2024-03-07T09:31:56;101143.34;;;6.14;69.17
52032;BME280;38044;45.148;39.604;2024-03-07T09:34:24;101140.59;;;6.08;70.88
52032;BME280;38044;45.148;39.604;2024-03-07T09:36:53;101137.44;;;6.12;70.12
52032;BME280;38044;45.148;39.604;2024-03-07T09:39:19;101159.50;;;6.24;70.36
52032;BME280;38044;45.148;39.604;2024-03-07T09:41:45;101153.09;;;6.25;70.31
52032;BME280;38044;45.148;39.604;2024-03-07T09:44:14;101148.72;;;6.36;70.12
52032;BME280;38044;45.148;39.604;2024-03-07T09:46:52;101158.03;;;6.33;69.40
52032;BME280;38044;45.148;39.604;2024-03-07T09:49:19;101158.53;;;6.30;68.88
52032;BME280;38044;45.148;39.604;2024-03-07T09:51:47;101148.00;;;6.01;69.15
52032;BME280;38044;45.148;39.604;2024-03-07T09:54:13;101145.63;;;5.88;69.29
52032;BME280;38044;45.148;39.604;2024-03-07T09:56:41;101143.88;;;5.77;70.70
52032;BME280;38044;45.148;39.604;2024-03-07T09:59:11;101158.59;;;5.96;70.46
52032;BME280;38044;45.148;39.604;2024-03-07T10:01:41;101146.53;;;5.94;69.95
52032;BME280;38044;45.148;39.604;2024-03-07T10:04:13;101154.69;;;6.04;70.72
52032;BME280;38044;45.148;39.604;2024-03-07T10:06:43;101161.38;;;6.06;69.20
52032;BME280;38044;45.148;39.604;2024-03-07T10:09:13;101156.47;;;5.81;69.07
52032;BME280;38044;45.148;39.604;2024-03-07T10:11:40;101164.41;;;5.76;70.05
52032;BME280;38044;45.148;39.604;2024-03-07T10:14:07;101177.81;;;5.81;70.46
52032;BME280;38044;45.148;39.604;2024-03-07T10:16:33;101156.63;;;5.75;69.92
52032;BME280;38044;45.148;39.604;2024-03-07T10:18:59;101176.59;;;5.72;69.98
52032;BME280;38044;45.148;39.604;2024-03-07T10:21:27;101179.25;;;5.72;70.69
52032;BME280;38044;45.148;39.604;2024-03-07T10:24:08;101165.91;;;5.72;70.85
52032;BME280;38044;45.148;39.604;2024-03-07T10:26:35;101184.28;;;5.52;70.98
52032;BME280;38044;45.148;39.604;2024-03-07T10:29:04;101170.22;;;5.39;71.41
52032;BME280;38044;45.148;39.604;2024-03-07T10:31:31;101187.00;;;5.40;72.15
52032;BME280;38044;45.148;39.604;2024-03-07T10:34:01;101167.13;;;5.31;71.48
52032;BME280;38044;45.148;39.604;2024-03-07T10:36:31;101179.28;;;5.38;72.29
52032;BME280;38044;45.148;39.604;2024-03-07T10:38:58;101177.72;;;5.26;71.90
52032;BME280;38044;45.148;39.604;2024-03-07T10:41:45;101199.31;;;5.41;72.29
52032;BME280;38044;45.148;39.604;2024-03-07T10:44:19;101192.44;;;5.45;72.01
52032;BME280;38044;45.148;39.604;2024-03-07T10:46:52;101188.97;;;5.45;71.51
52032;BME280;38044;45.148;39.604;2024-03-07T10:49:20;101193.00;;;5.30;72.02
52032;BME280;38044;45.148;39.604;2024-03-07T10:52:13;101185.00;;;5.47;71.16
52032;BME280;38044;45.148;39.604;2024-03-07T10:55:06;101193.72;;;5.42;71.69
52032;BME280;38044;45.148;39.604;2024-03-07T10:57:57;101196.72;;;5.46;nan
52032;BME280;38044;45.148;39.604;2024-03-07T11:00:28;101194.69;;;5.36;72.31
52032;BME280;38044;45.148;39.604;2024-03-07T11:03:02;101204.47;;;5.31;72.22
52032;BME280;38044;45.148;39.604;2024-03-07T11:05:33;101206.06;;;5.32;71.37
52032;BME280;38044;45.148;39.604;2024-03-07T11:08:03;101203.56;;;5.25;72.24
52032;BME280;38044;45.148;39.604;2024-03-07T11:10:37;101204.75;;;5.17;71.92
52032;BME280;38044;45.148;39.604;2024-03-07T11:13:08;101208.09;;;5.25;71.68
52032;BME280;38044;45.148;39.604;2024-03-07T11:15:36;101202.66;;;5.19;71.37
52032;BME280;38044;45.148;39.604;2024-03-07T11:18:03;101218.31;;;5.16;71.03
52032;BME280;38044;45.148;39.604;2024-03-07T11:20:37;101207.50;;;5.23;71.44
52032;BME280;38044;45.148;39.604;2024-03-07T11:23:28;101214.22;;;5.25;71.58
52032;BME280;38044;45.148;39.604;2024-03-07T11:26:14;101221.16;;;5.26;72.11
52032;BME280;38044;45.148;39.604;2024-03-07T11:28:43;101216.84;;;5.08;72.16
52032;BME280;38044;45.148;39.604;2024-03-07T11:31:26;101227.81;;;5.12;72.00
52032;BME280;38044;45.148;39.604;2024-03-07T11:34:12;101233.63;;;5.09;71.74
52032;BME280;38044;45.148;39.604;2024-03-07T11:36:44;101236.81;;;4.94;71.59
52032;BME280;38044;45.148;39.604;2024-03-07T11:39:41;101237.97;;;4.98;72.36
52032;BME280;38044;45.148;39.604;2024-03-07T11:42:28;101238.44;;;4.95;72.53
52032;BME280;38044;45.148;39.604;2024-03-07T11:44:59;101238.81;;;4.87;72.70
52032;BME280;38044;45.148;39.604;2024-03-07T11:47:35;101247.34;;;5.01;72.74
52032;BME280;38044;45.148;39.604;2024-03-07T11:50:04;101237.16;;;4.97;72.21
52032;BME280;38044;45.148;39.604;2024-03-07T11:52:35;101244.34;;;4.97;72.47
52032;BME280;38044;45.148;39.604;2024-03-07T11:55:02;101242.16;;;4.94;72.05
52032;BME280;38044;45.148;39.604;2024-03-07T11:57:31;101246.41;;;4.95;72.40
52032;BME280;38044;45.148;39.604;2024-03-07T12:00:01;101244.00;;;4.93;72.09
52032;BME280;38044;45.148;39.604;2024-03-07T12:02:33;101243.44;;;5.20;71.56
52032;BME280;38044;45.148;39.604;2024-03-07T12:04:59;101244.47;;;4.90;72.50
52032;BME280;38044;45.148;39.604;2024-03-07T12:07:29;101249.09;;;4.95;72.12
52032;BME280;38044;45.148;39.604;2024-03-07T12:09:55;101247.28;;;4.84;72.30
52032;BME280;38044;45.148;39.604;2024-03-07T12:12:22;101257.72;;;4.73;72.79
52032;BME280;38044;45.148;39.604;2024-03-07T12:14:48;101253.66;;;4.71;73.02
52032;BME280;38044;45.148;39.604;2024-03-07T12:17:17;101257.03;;;4.66;72.78
52032;BME280;38044;45.148;39.604;2024-03-07T12:19:43;101242.72;;;4.56;72.92
52032;BME280;38044;45.148;39.604;2024-03-07T12:22:11;101252.63;;;4.60;73.17
52032;BME280;38044;45.148;39.604;2024-03-07T12:24:41;101248.59;;;4.58;73.81
52032;BME280;38044;45.148;39.604;2024-03-07T12:27:15;101263.88;;;4.62;73.42
52032;BME280;38044;45.148;39.604;2024-03-07T12:29:42;101243.28;;;4.46;73.43
52032;BME280;38044;45.148;39.604;2024-03-07T12:32:11;101271.19;;;4.55;73.20
52032;BME280;38044;45.148;39.604;2024-03-07T12:34:42;101274.88;;;4.54;72.82
52032;BME280;38044;45.148;39.604;2024-03-07T12:37:11;101271.75;;;4.45;73.36
52032;BME280;38044;45.148;39.604;2024-03-07T12:39:44;101269.91;;;4.46;73.83
52032;BME280;38044;45.148;39.604;2024-03-07T12:42:18;101278.00;;;4.51;73.42
52032;BME280;38044;45.148;39.604;2024-03-07T12:44:46;101278.72;;;4.46;72.89
52032;BME280;38044;45.148;39.604;2024-03-07T12:47:16;101267.50;;;4.33;73.28
52032;BME280;38044;45.148;39.604;2024-03-07T12:49:42;101268.50;;;4.20;73.36
52032;BME280;38044;45.148;39.604;2024-03-07T12:52:09;101281.59;;;4.21;73.79
52032;BME280;38044;45.148;39.604;2024-03-07T12:54:37;101280.34;;;4.24;74.24
52032;BME280;38044;45.148;39.604;2024-03-07T12:57:09;101284.41;;;4.26;74.12
52032;BME280;38044;45.148;39.604;2024-03-07T12:59:38;101290.63;;;4.20;74.09
52032;BME280;38044;45.148;39.604;2024-03-07T13:02:08;101288.66;;;4.16;73.81